createdAt,value
2023-07-18T00:01:39.692Z,100.00
2023-07-18T00:04:08.768Z,100.00
2023-07-18T00:06:39.933Z,100.00
2023-07-18T00:09:08.308Z,100.00
2023-07-18T00:11:37.436Z,100.00
2023-07-18T00:14:06.038Z,100.00
2023-07-18T00:16:34.494Z,100.00
2023-07-18T00:19:02.939Z,100.00
2023-07-18T00:21:31.374Z,100.00
2023-07-18T00:24:00.801Z,100.00
2023-07-18T00:26:29.030Z,100.00
2023-07-18T00:28:57.258Z,100.00
2023-07-18T00:31:25.665Z,100.00
2023-07-18T00:33:53.863Z,100.00
2023-07-18T00:36:23.007Z,100.00
2023-07-18T00:38:51.561Z,100.00
2023-07-18T00:41:20.045Z,100.00
2023-07-18T00:43:48.464Z,100.00
2023-07-18T00:46:17.757Z,100.00
2023-07-18T00:48:46.178Z,100.00
2023-07-18T00:51:14.643Z,100.00
2023-07-18T00:53:43.184Z,100.00
2023-07-18T00:56:11.306Z,100.00
2023-07-18T00:58:40.077Z,100.00
2023-07-18T01:01:08.550Z,100.00
2023-07-18T01:03:40.057Z,100.00
2023-07-18T01:06:11.188Z,100.00
2023-07-18T01:08:41.299Z,100.00
2023-07-18T01:11:09.588Z,100.00
2023-07-18T01:13:37.567Z,100.00
2023-07-18T01:16:05.679Z,100.00
2023-07-18T01:18:34.454Z,100.00
2023-07-18T01:21:03.641Z,100.00
2023-07-18T01:23:31.784Z,100.00
2023-07-18T01:26:00.513Z,100.00
2023-07-18T01:28:28.973Z,100.00
2023-07-18T01:30:57.441Z,100.00
2023-07-18T01:33:25.833Z,100.00
2023-07-18T01:35:54.425Z,100.00
2023-07-18T01:38:22.757Z,99.88
2023-07-18T01:40:50.959Z,100.00
2023-07-18T01:43:19.022Z,99.98
2023-07-18T01:45:47.207Z,99.80
2023-07-18T01:48:15.640Z,100.00
2023-07-18T01:50:44.687Z,99.73
2023-07-18T01:53:12.870Z,99.23
2023-07-18T01:55:42.060Z,98.96
2023-07-18T01:58:10.123Z,99.08
2023-07-18T02:00:38.262Z,98.28
2023-07-18T02:03:07.275Z,98.03
2023-07-18T02:05:35.903Z,97.55
2023-07-18T02:08:04.867Z,98.18
2023-07-18T02:10:34.782Z,99.35
2023-07-18T02:13:04.377Z,98.37
2023-07-18T02:15:33.299Z,97.41
2023-07-18T02:18:01.402Z,96.65
2023-07-18T02:20:30.962Z,96.45
2023-07-18T02:23:01.997Z,96.25
2023-07-18T02:25:30.946Z,96.49
2023-07-18T02:27:59.329Z,95.96
2023-07-18T02:30:29.655Z,96.16
2023-07-18T02:32:58.692Z,97.25
2023-07-18T02:35:27.662Z,98.08
2023-07-18T02:37:55.734Z,98.93
2023-07-18T02:40:25.976Z,99.26
2023-07-18T02:42:54.531Z,99.12
2023-07-18T02:45:22.670Z,98.11
2023-07-18T02:47:50.897Z,97.69
2023-07-18T02:50:19.238Z,98.54
2023-07-18T02:52:47.695Z,98.19
2023-07-18T02:55:15.806Z,96.93
2023-07-18T02:57:43.885Z,97.02
2023-07-18T03:00:21.538Z,97.97
2023-07-18T03:02:50.794Z,97.84
2023-07-18T03:05:20.744Z,97.46
2023-07-18T03:07:49.457Z,96.63
2023-07-18T03:10:17.878Z,96.60
2023-07-18T03:12:47.447Z,96.93
2023-07-18T03:15:17.701Z,95.91
2023-07-18T03:17:45.972Z,94.68
2023-07-18T03:20:21.162Z,94.17
2023-07-18T03:22:51.687Z,93.61
2023-07-18T03:25:22.162Z,93.01
2023-07-18T03:27:51.388Z,92.35
2023-07-18T03:30:19.777Z,91.98
2023-07-18T03:32:49.407Z,91.49
2023-07-18T03:35:17.846Z,91.17
2023-07-18T03:37:45.967Z,90.77
2023-07-18T03:40:17.526Z,89.70
2023-07-18T03:42:46.489Z,89.05
2023-07-18T03:45:15.421Z,89.19
2023-07-18T03:47:44.785Z,89.69
2023-07-18T03:50:15.619Z,89.46
2023-07-18T03:52:44.096Z,88.69
2023-07-18T03:55:12.300Z,88.24
2023-07-18T03:57:41.436Z,88.80
2023-07-18T04:00:18.861Z,88.82
2023-07-18T04:02:49.408Z,88.31
2023-07-18T04:05:19.188Z,87.77
2023-07-18T04:07:48.106Z,86.28
2023-07-18T04:10:16.839Z,85.45
2023-07-18T04:12:45.461Z,83.67
2023-07-18T04:15:14.908Z,82.76
2023-07-18T04:17:43.173Z,81.63
2023-07-18T04:20:11.992Z,81.18
2023-07-18T04:22:40.165Z,81.60
2023-07-18T04:25:09.317Z,81.56
2023-07-18T04:27:37.284Z,79.95
2023-07-18T04:30:07.111Z,75.09
2023-07-18T04:32:35.223Z,69.88
2023-07-18T04:35:04.924Z,65.84
2023-07-18T04:37:33.108Z,61.76
2023-07-18T04:40:01.523Z,58.65
2023-07-18T04:42:30.083Z,57.54
2023-07-18T04:44:58.823Z,54.74
2023-07-18T04:47:27.891Z,53.78
2023-07-18T04:49:57.110Z,52.76
2023-07-18T04:52:25.216Z,51.76
2023-07-18T04:54:53.617Z,50.75
2023-07-18T04:57:22.377Z,50.75
2023-07-18T04:59:50.631Z,51.00
2023-07-18T05:02:18.764Z,50.08
2023-07-18T05:04:46.801Z,49.49
2023-07-18T05:07:16.340Z,48.85
2023-07-18T05:09:47.570Z,48.03
2023-07-18T05:12:15.963Z,47.08
2023-07-18T05:14:44.600Z,47.38
2023-07-18T05:17:12.634Z,46.72
2023-07-18T05:19:40.904Z,46.23
2023-07-18T05:22:09.225Z,46.34
2023-07-18T05:24:37.523Z,46.05
2023-07-18T05:27:06.424Z,45.01
2023-07-18T05:29:34.464Z,44.39
2023-07-18T05:32:02.689Z,44.39
2023-07-18T05:34:30.814Z,43.67
2023-07-18T05:37:00.768Z,43.14
2023-07-18T05:39:29.399Z,42.67
2023-07-18T05:41:58.693Z,41.68
2023-07-18T05:44:26.913Z,41.91
2023-07-18T05:46:55.284Z,42.61
2023-07-18T05:49:23.642Z,43.14
2023-07-18T05:51:51.804Z,42.73
2023-07-18T05:54:20.327Z,42.09
2023-07-18T05:56:48.583Z,42.15
2023-07-18T05:59:16.773Z,41.46
2023-07-18T06:01:45.485Z,41.32
2023-07-18T06:04:17.167Z,40.67
2023-07-18T06:06:46.152Z,40.33
2023-07-18T06:09:14.642Z,39.24
2023-07-18T06:11:43.570Z,38.48
2023-07-18T06:14:12.038Z,38.40
2023-07-18T06:16:40.635Z,39.20
2023-07-18T06:19:08.797Z,39.64
2023-07-18T06:21:37.068Z,38.84
2023-07-18T06:24:18.075Z,38.06
2023-07-18T06:26:50.813Z,38.30
2023-07-18T06:29:21.256Z,38.26
2023-07-18T06:31:50.550Z,37.86
2023-07-18T06:34:20.055Z,37.70
2023-07-18T06:36:48.422Z,37.59
2023-07-18T06:39:18.248Z,37.46
2023-07-18T06:41:46.930Z,37.88
2023-07-18T06:44:16.485Z,37.98
2023-07-18T06:46:45.276Z,37.94
2023-07-18T06:49:14.697Z,38.31
2023-07-18T06:51:43.560Z,38.70
2023-07-18T06:54:11.835Z,38.52
2023-07-18T06:56:41.810Z,38.77
2023-07-18T06:59:10.646Z,37.73
2023-07-18T07:01:38.851Z,36.90
2023-07-18T07:04:07.256Z,36.87
2023-07-18T07:06:42.775Z,37.09
2023-07-18T07:09:14.544Z,37.31
2023-07-18T07:11:44.767Z,38.09
2023-07-18T07:14:13.312Z,37.98
2023-07-18T07:16:42.041Z,36.74
2023-07-18T07:19:10.577Z,36.45
2023-07-18T07:21:38.708Z,36.03
2023-07-18T07:24:07.339Z,35.44
2023-07-18T07:26:38.921Z,35.53
2023-07-18T07:29:08.651Z,35.35
2023-07-18T07:31:38.770Z,34.98
2023-07-18T07:34:13.561Z,34.28
2023-07-18T07:36:41.697Z,34.51
2023-07-18T07:39:09.887Z,35.09
2023-07-18T07:41:38.155Z,34.47
2023-07-18T07:44:06.180Z,34.06
2023-07-18T07:46:34.259Z,34.34
2023-07-18T07:49:05.386Z,33.93
2023-07-18T07:51:34.862Z,33.57
2023-07-18T07:54:03.027Z,32.46
2023-07-18T07:56:31.485Z,31.90
2023-07-18T08:01:31.031Z,31.63
2023-07-18T08:03:59.246Z,31.32
2023-07-18T08:06:27.563Z,31.16
2023-07-18T08:08:55.980Z,30.39
2023-07-18T08:11:24.265Z,29.89
2023-07-18T08:13:54.616Z,29.03
2023-07-18T08:16:22.985Z,28.87
2023-07-18T08:18:51.119Z,29.14
2023-07-18T08:21:20.513Z,29.47
2023-07-18T08:23:49.227Z,29.42
2023-07-18T08:26:17.319Z,29.60
2023-07-18T08:28:45.378Z,28.18
2023-07-18T08:31:13.459Z,27.97
2023-07-18T08:33:41.508Z,27.45
2023-07-18T08:36:09.704Z,25.92
2023-07-18T08:38:38.396Z,25.19
2023-07-18T08:41:08.975Z,24.62
2023-07-18T08:43:38.432Z,24.36
2023-07-18T08:46:08.400Z,23.89
2023-07-18T08:48:36.595Z,22.99
2023-07-18T08:51:04.743Z,22.96
2023-07-18T08:53:35.519Z,23.09
2023-07-18T08:56:09.630Z,23.71
2023-07-18T08:58:38.855Z,23.13
2023-07-18T09:01:09.181Z,23.04
2023-07-18T09:03:37.605Z,23.83
2023-07-18T09:06:19.438Z,23.33
2023-07-18T09:08:48.305Z,22.16
2023-07-18T09:11:22.214Z,23.25
2023-07-18T09:13:50.910Z,22.44
2023-07-18T09:16:23.301Z,22.26
2023-07-18T09:18:56.673Z,23.08
2023-07-18T09:21:24.996Z,23.62
2023-07-18T09:23:54.125Z,22.12
2023-07-18T09:26:23.111Z,21.95
2023-07-18T09:28:52.733Z,22.76
2023-07-18T09:31:23.903Z,23.00
2023-07-18T09:33:55.245Z,23.55
2023-07-18T09:36:25.815Z,23.23
2023-07-18T09:38:54.039Z,22.65
2023-07-18T09:41:24.002Z,22.60
2023-07-18T09:44:02.764Z,23.76
2023-07-18T09:46:44.733Z,24.31
2023-07-18T09:49:14.701Z,23.70
2023-07-18T09:51:49.332Z,23.45
2023-07-18T09:54:18.471Z,23.41
2023-07-18T09:56:48.129Z,22.77
2023-07-18T09:59:17.623Z,22.59
2023-07-18T10:01:46.723Z,23.34
2023-07-18T10:04:15.098Z,23.28
2023-07-18T10:06:43.947Z,23.43
2023-07-18T10:09:13.129Z,23.32
2023-07-18T10:11:59.637Z,24.37
2023-07-18T10:15:01.478Z,24.39
2023-07-18T10:17:32.662Z,24.33
2023-07-18T10:20:05.614Z,24.47
2023-07-18T10:22:34.171Z,24.22
2023-07-18T10:25:09.280Z,23.81
2023-07-18T10:27:39.113Z,24.25
2023-07-18T10:30:09.676Z,24.54
2023-07-18T10:32:39.532Z,24.76
2023-07-18T10:35:12.231Z,24.34
2023-07-18T10:37:45.310Z,24.05
2023-07-18T10:40:31.450Z,23.67
2023-07-18T10:43:00.238Z,23.45
2023-07-18T10:45:28.451Z,23.49
2023-07-18T10:47:56.745Z,24.05
2023-07-18T10:50:25.185Z,24.05
2023-07-18T10:52:53.276Z,24.34
2023-07-18T10:55:21.259Z,25.03
2023-07-18T10:57:49.330Z,25.18
2023-07-18T11:00:18.651Z,24.11
2023-07-18T11:02:46.731Z,24.71
2023-07-18T11:05:15.367Z,24.19
2023-07-18T11:07:45.751Z,23.90
2023-07-18T11:10:15.015Z,24.31
2023-07-18T11:12:44.075Z,24.86
2023-07-18T11:15:13.251Z,24.89
2023-07-18T11:17:43.399Z,24.67
2023-07-18T11:20:13.027Z,23.74
2023-07-18T11:22:41.981Z,23.88
2023-07-18T11:25:11.185Z,24.17
2023-07-18T11:27:39.274Z,24.54
2023-07-18T11:30:10.642Z,24.47
2023-07-18T11:32:46.878Z,24.56
2023-07-18T11:35:24.654Z,24.05
2023-07-18T11:37:54.558Z,23.73
2023-07-18T11:40:27.282Z,23.67
2023-07-18T11:42:59.200Z,24.69
2023-07-18T11:45:31.353Z,24.97
2023-07-18T11:48:00.538Z,25.39
2023-07-18T11:50:30.646Z,24.29
2023-07-18T11:53:00.337Z,24.09
2023-07-18T11:55:29.305Z,24.74
2023-07-18T11:57:58.736Z,25.54
2023-07-18T12:00:27.113Z,25.66
2023-07-18T12:02:55.230Z,25.18
2023-07-18T12:05:25.828Z,25.23
2023-07-18T12:07:54.413Z,25.16
2023-07-18T12:10:25.645Z,25.24
2023-07-18T12:12:54.534Z,25.58
2023-07-18T12:15:22.834Z,25.11
2023-07-18T12:17:51.636Z,25.15
2023-07-18T12:20:20.185Z,25.72
2023-07-18T12:22:48.330Z,26.11
2023-07-18T12:25:16.823Z,26.22
2023-07-18T12:27:45.184Z,26.08
2023-07-18T12:30:13.609Z,26.56
2023-07-18T12:32:41.911Z,26.94
2023-07-18T12:35:10.510Z,26.48
2023-07-18T12:37:38.606Z,26.41
2023-07-18T12:40:08.555Z,26.79
2023-07-18T12:42:36.678Z,26.46
2023-07-18T12:45:05.540Z,26.62
2023-07-18T12:47:33.873Z,26.20
2023-07-18T12:50:02.106Z,26.16
2023-07-18T12:52:31.211Z,26.34
2023-07-18T12:54:59.549Z,26.35
2023-07-18T12:57:30.003Z,26.52
2023-07-18T12:59:59.358Z,26.32
2023-07-18T13:02:28.225Z,26.77
2023-07-18T13:04:56.737Z,27.07
2023-07-18T13:07:24.953Z,27.66
2023-07-18T13:09:53.600Z,27.83
2023-07-18T13:12:21.597Z,28.14
2023-07-18T13:14:49.706Z,28.33
2023-07-18T13:17:18.025Z,28.54
2023-07-18T13:19:45.981Z,28.95
2023-07-18T13:22:13.998Z,28.53
2023-07-18T13:24:42.274Z,28.33
2023-07-18T13:27:10.367Z,28.85
2023-07-18T13:29:38.466Z,29.40
2023-07-18T13:32:08.370Z,29.48
2023-07-18T13:34:37.742Z,30.66
2023-07-18T13:37:06.630Z,29.86
2023-07-18T13:39:34.948Z,29.18
2023-07-18T13:42:03.287Z,29.17
2023-07-18T13:44:31.184Z,29.08
2023-07-18T13:46:59.536Z,29.17
2023-07-18T13:49:49.097Z,29.65
2023-07-18T13:52:16.223Z,29.23
2023-07-18T13:54:44.254Z,28.99
2023-07-18T13:57:12.274Z,29.32
2023-07-18T13:59:40.469Z,29.29
2023-07-18T14:02:08.621Z,29.21
2023-07-18T14:04:37.536Z,29.53
2023-07-18T14:07:06.007Z,29.74
2023-07-18T14:09:36.694Z,29.17
2023-07-18T14:12:06.579Z,29.58
2023-07-18T14:14:34.629Z,29.57
2023-07-18T14:17:02.806Z,29.96
2023-07-18T14:19:30.789Z,30.71
2023-07-18T14:21:59.047Z,31.27
2023-07-18T14:24:27.065Z,31.16
2023-07-18T14:26:55.583Z,30.93
2023-07-18T14:29:23.760Z,30.89
2023-07-18T14:31:53.502Z,31.66
2023-07-18T14:34:22.012Z,32.51
2023-07-18T14:36:50.247Z,32.21
2023-07-18T14:39:18.250Z,32.18
2023-07-18T14:41:46.300Z,32.36
2023-07-18T14:44:14.959Z,32.19
2023-07-18T14:46:42.983Z,32.29
2023-07-18T14:49:11.181Z,32.01
2023-07-18T14:51:39.530Z,32.13
2023-07-18T14:54:07.461Z,31.68
2023-07-18T14:56:38.465Z,32.08
2023-07-18T14:59:06.781Z,32.03
2023-07-18T15:01:34.853Z,32.08
2023-07-18T15:04:03.273Z,31.97
2023-07-18T15:06:32.004Z,32.81
2023-07-18T15:09:00.083Z,33.03
2023-07-18T15:11:30.354Z,32.98
2023-07-18T15:13:58.977Z,33.58
2023-07-18T15:16:27.345Z,34.11
2023-07-18T15:18:55.714Z,34.18
2023-07-18T15:21:24.123Z,35.13
2023-07-18T15:23:52.342Z,35.08
2023-07-18T15:26:21.394Z,34.98
2023-07-18T15:28:50.019Z,35.53
2023-07-18T15:31:19.210Z,36.57
2023-07-18T15:33:47.593Z,36.40
2023-07-18T15:36:16.471Z,36.28
2023-07-18T15:38:46.437Z,36.41
2023-07-18T15:41:14.651Z,36.28
2023-07-18T15:43:43.788Z,36.46
2023-07-18T15:46:12.234Z,37.10
2023-07-18T15:48:45.333Z,37.36
2023-07-18T15:51:14.055Z,37.58
2023-07-18T15:53:41.989Z,37.81
2023-07-18T15:56:15.425Z,38.40
2023-07-18T15:58:43.795Z,38.55
2023-07-18T16:01:12.265Z,38.68
2023-07-18T16:03:40.832Z,38.46
2023-07-18T16:06:09.630Z,38.83
2023-07-18T16:08:37.617Z,38.59
2023-07-18T16:11:05.679Z,38.43
2023-07-18T16:13:33.892Z,38.37
2023-07-18T16:16:02.239Z,38.12
2023-07-18T16:18:30.547Z,38.43
2023-07-18T16:20:58.580Z,38.01
2023-07-18T16:23:26.609Z,38.54
2023-07-18T16:25:55.369Z,38.78
2023-07-18T16:28:23.449Z,39.42
2023-07-18T16:30:51.635Z,39.91
2023-07-18T16:33:19.801Z,40.63
2023-07-18T16:35:48.549Z,41.31
2023-07-18T16:38:16.698Z,41.61
2023-07-18T16:40:44.802Z,41.28
2023-07-18T16:43:12.985Z,41.79
2023-07-18T16:45:41.351Z,42.17
2023-07-18T16:48:09.479Z,42.89
2023-07-18T16:50:37.640Z,43.35
2023-07-18T16:53:05.782Z,43.22
2023-07-18T16:55:33.855Z,43.54
2023-07-18T16:58:04.011Z,43.97
2023-07-18T17:00:32.720Z,44.48
2023-07-18T17:03:00.654Z,44.79
2023-07-18T17:05:29.072Z,45.29
2023-07-18T17:07:57.422Z,45.91
2023-07-18T17:10:26.964Z,46.20
2023-07-18T17:12:55.533Z,46.60
2023-07-18T17:15:23.566Z,46.93
2023-07-18T17:17:51.725Z,47.14
2023-07-18T17:20:20.315Z,47.94
2023-07-18T17:22:48.320Z,48.69
2023-07-18T17:25:16.452Z,48.95
2023-07-18T17:27:44.527Z,49.47
2023-07-18T17:30:12.903Z,49.73
2023-07-18T17:32:41.174Z,50.42
2023-07-18T17:35:10.385Z,51.22
2023-07-18T17:37:41.418Z,52.07
2023-07-18T17:40:12.936Z,51.86
2023-07-18T17:42:43.911Z,52.27
2023-07-18T17:45:13.229Z,52.44
2023-07-18T17:47:42.052Z,53.00
2023-07-18T17:50:11.402Z,53.42
2023-07-18T17:52:40.708Z,53.96
2023-07-18T17:55:12.584Z,53.74
2023-07-18T17:57:40.910Z,53.95
2023-07-18T18:00:10.176Z,53.33
2023-07-18T18:02:38.313Z,53.33
2023-07-18T18:05:35.772Z,53.28
2023-07-18T18:08:08.457Z,53.40
2023-07-18T18:10:36.481Z,54.21
2023-07-18T18:13:04.850Z,54.27
2023-07-18T18:15:33.171Z,55.07
2023-07-18T18:18:02.418Z,55.25
2023-07-18T18:20:30.642Z,55.25
2023-07-18T18:22:59.108Z,55.50
2023-07-18T18:25:28.432Z,55.46
2023-07-18T18:27:56.783Z,55.57
2023-07-18T18:30:25.162Z,55.44
2023-07-18T18:32:54.184Z,56.25
2023-07-18T18:35:22.080Z,57.29
2023-07-18T18:37:50.134Z,57.43
2023-07-18T18:40:18.910Z,56.42
2023-07-18T18:42:47.839Z,57.21
2023-07-18T18:45:16.898Z,58.07
2023-07-18T18:47:44.867Z,59.75
2023-07-18T18:50:17.044Z,58.63
2023-07-18T18:52:48.406Z,59.87
2023-07-18T18:55:20.248Z,58.89
2023-07-18T18:57:49.137Z,58.59
2023-07-18T19:00:18.761Z,59.79
2023-07-18T19:02:47.111Z,60.31
2023-07-18T19:05:15.461Z,60.12
2023-07-18T19:07:43.576Z,59.44
2023-07-18T19:10:11.778Z,60.33
2023-07-18T19:12:40.439Z,60.79
2023-07-18T19:15:09.095Z,61.30
2023-07-18T19:17:37.273Z,60.77
2023-07-18T19:20:06.127Z,61.01
2023-07-18T19:22:34.442Z,61.94
2023-07-18T19:25:03.510Z,61.55
2023-07-18T19:27:31.819Z,62.05
2023-07-18T19:30:00.282Z,62.36
2023-07-18T19:32:28.745Z,62.65
2023-07-18T19:34:57.425Z,61.82
2023-07-18T19:37:25.499Z,61.54
2023-07-18T19:39:53.827Z,61.10
2023-07-18T19:42:21.921Z,61.52
2023-07-18T19:44:50.031Z,61.27
2023-07-18T19:47:18.063Z,62.71
2023-07-18T19:49:46.489Z,63.12
2023-07-18T19:52:15.502Z,63.06
2023-07-18T19:54:43.476Z,63.81
2023-07-18T19:57:11.699Z,64.80
2023-07-18T19:59:39.880Z,63.77
2023-07-18T20:02:08.298Z,64.11
2023-07-18T20:04:36.505Z,64.53
2023-07-18T20:07:05.831Z,64.98
2023-07-18T20:09:34.469Z,65.91
2023-07-18T20:12:02.761Z,66.15
2023-07-18T20:14:30.997Z,66.10
2023-07-18T20:16:59.146Z,65.75
2023-07-18T20:19:28.161Z,66.44
2023-07-18T20:21:56.206Z,65.98
2023-07-18T20:24:24.268Z,65.92
2023-07-18T20:26:52.274Z,66.39
2023-07-18T20:29:20.542Z,67.36
2023-07-18T20:31:48.732Z,67.26
2023-07-18T20:34:16.868Z,67.07
2023-07-18T20:36:44.856Z,67.10
2023-07-18T20:39:12.963Z,66.82
2023-07-18T20:41:41.199Z,67.79
2023-07-18T20:44:09.447Z,68.27
2023-07-18T20:46:37.757Z,68.80
2023-07-18T20:49:06.407Z,68.53
2023-07-18T20:51:34.607Z,69.08
2023-07-18T20:54:05.389Z,68.83
2023-07-18T20:56:35.267Z,69.83
2023-07-18T20:59:06.478Z,70.98
2023-07-18T21:01:35.245Z,71.81
2023-07-18T21:04:03.674Z,71.61
2023-07-18T21:06:31.914Z,70.25
2023-07-18T21:09:01.376Z,71.84
2023-07-18T21:11:29.644Z,71.44
2023-07-18T21:13:57.670Z,71.53
2023-07-18T21:16:25.743Z,71.77
2023-07-18T21:18:54.033Z,71.14
2023-07-18T21:21:22.551Z,70.47
2023-07-18T21:23:53.400Z,70.01
2023-07-18T21:26:24.312Z,70.37
2023-07-18T21:29:03.882Z,70.04
2023-07-18T21:31:34.168Z,70.53
2023-07-18T21:34:04.647Z,71.68
2023-07-18T21:36:32.836Z,71.82
2023-07-18T21:39:01.303Z,72.27
2023-07-18T21:41:32.949Z,71.18
2023-07-18T21:44:02.869Z,70.97
2023-07-18T21:46:31.371Z,72.15
2023-07-18T21:48:59.382Z,72.70
2023-07-18T21:51:27.868Z,73.19
2023-07-18T21:53:57.102Z,73.65
2023-07-18T21:56:25.224Z,73.53
2023-07-18T21:58:53.245Z,73.33
2023-07-18T22:01:21.672Z,72.18
2023-07-18T22:03:50.000Z,72.39
2023-07-18T22:06:18.249Z,72.18
2023-07-18T22:08:46.844Z,71.58
2023-07-18T22:11:14.989Z,72.05
2023-07-18T22:13:43.595Z,71.64
2023-07-18T22:16:12.154Z,71.55
2023-07-18T22:18:40.474Z,71.60
2023-07-18T22:21:08.624Z,72.12
2023-07-18T22:23:36.733Z,72.81
2023-07-18T22:26:14.141Z,73.25
2023-07-18T22:28:43.564Z,73.17
2023-07-18T22:31:12.219Z,74.27
2023-07-18T22:33:40.820Z,74.66
2023-07-18T22:36:09.356Z,75.01
2023-07-18T22:38:37.410Z,74.90
2023-07-18T22:41:05.438Z,75.38
2023-07-18T22:43:33.764Z,75.35
2023-07-18T22:46:02.047Z,76.00
2023-07-18T22:48:30.323Z,76.14
2023-07-18T22:50:59.100Z,76.37
2023-07-18T22:53:27.143Z,75.97
2023-07-18T22:55:55.313Z,76.81
2023-07-18T22:58:23.377Z,76.54
2023-07-18T23:00:51.877Z,75.99
2023-07-18T23:03:20.100Z,75.64
2023-07-18T23:05:48.321Z,75.86
2023-07-18T23:08:16.548Z,74.96
2023-07-18T23:10:44.848Z,75.26
2023-07-18T23:13:15.271Z,74.95
2023-07-18T23:15:44.639Z,75.09
2023-07-18T23:18:13.074Z,75.40
2023-07-18T23:20:41.761Z,75.92
2023-07-18T23:23:09.961Z,75.87
2023-07-18T23:25:38.791Z,75.85
2023-07-18T23:28:07.134Z,76.16
2023-07-18T23:30:35.267Z,76.58
2023-07-18T23:33:03.660Z,76.87
2023-07-18T23:35:32.035Z,76.78
2023-07-18T23:38:00.236Z,76.74
2023-07-18T23:40:28.252Z,75.82
2023-07-18T23:42:56.417Z,76.02
2023-07-18T23:45:24.602Z,75.55
2023-07-18T23:47:52.611Z,75.44
2023-07-18T23:50:20.697Z,75.33
2023-07-18T23:52:48.726Z,75.16
2023-07-18T23:55:17.150Z,74.46
2023-07-18T23:57:45.745Z,74.23
